Time;durP1;ratioP1;P1;durP2;ratioP2;P2;SDS_P1;SDS_P2;PMS_P1;PMS_P2;Temp;Humidity;BMP_temperature;BMP_pressure;BME280_temperature;BME280_humidity;BME280_pressure;Samples;Min_cycle;Max_cycle;Signal;HPM_P1;HPM_P2
2023/10/03 00:01:17;;;;;;;;;;;;;;;-128.00;-1.00;-1.00;100746;320;1003083;-34
2023/10/03 00:03:43;;;;;;;9.80;4.30;;;;;;;-128.00;-1.00;-1.00;100586;321;1004527;-35
2023/10/03 00:06:09;;;;;;;5.80;2.10;;;;;;;-128.00;-1.00;-1.00;100725;319;1003701;-36
2023/10/03 00:08:34;;;;;;;7.90;3.90;;;;;;;-128.00;-1.00;-1.00;100689;320;1003287;-31
2023/10/03 00:11:00;;;;;;;8.10;3.60;;;;;;;-128.00;-1.00;-1.00;100808;319;1004563;-31
2023/10/03 00:13:26;;;;;;;10.10;3.60;;;;;;;-128.00;-1.00;-1.00;100633;320;1004348;-30
2023/10/03 00:15:52;;;;;;;9.30;3.00;;;;;;;-128.00;-1.00;-1.00;100871;319;1003820;-35
2023/10/03 00:18:17;;;;;;;3.00;1.80;;;;;;;-128.00;-1.00;-1.00;100814;319;1003027;-35
2023/10/03 00:20:43;;;;;;;11.00;5.40;;;;;;;-128.00;-1.00;-1.00;100788;319;1003316;-34
2023/10/03 00:23:09;;;;;;;18.60;5.80;;;;;;;-128.00;-1.00;-1.00;100653;319;1003995;-30
2023/10/03 00:25:36;;;;;;;12.40;3.80;;;;;;;-128.00;-1.00;-1.00;100715;319;1003407;-29
2023/10/03 00:28:01;;;;;;;9.70;4.30;;;;;;;-128.00;-1.00;-1.00;100706;319;1003051;-32
2023/10/03 00:30:28;;;;;;;7.10;3.80;;;;;;;-128.00;-1.00;-1.00;100851;319;1003010;-38
2023/10/03 00:32:54;;;;;;;;;;;;;;;-128.00;-1.00;-1.00;100597;319;1003027;-30
2023/10/03 00:35:20;;;;;;;10.10;6.40;;;;;;;-128.00;-1.00;-1.00;100764;318;1004098;-30
2023/10/03 00:37:47;;;;;;;15.30;6.90;;;;;;;-128.00;-1.00;-1.00;100767;318;1003531;-30
2023/10/03 01:19:31;;;;;;;5.90;3.90;;;;;;;-100.03;19.20;19939.57;44129;316;7506066;-35
2023/10/03 01:21:57;;;;;;;16.10;5.40;;;;;;;-128.00;-1.00;-1.00;18722;314;7504786;-30
2023/10/03 01:24:25;;;;;;;6.50;4.30;;;;;;;-128.00;-1.00;-1.00;19097;315;7504800;-31
2023/10/03 01:26:53;;;;;;;7.90;4.70;;;;;;;-128.00;-1.00;-1.00;19084;315;7505260;-30
2023/10/03 01:29:20;;;;;;;9.40;4.10;;;;;;;-128.00;-1.00;-1.00;19087;320;7505235;-35
2023/10/03 01:31:48;;;;;;;9.20;5.80;;;;;;;-128.00;-1.00;-1.00;19050;316;7506592;-31
2023/10/03 01:34:15;;;;;;;14.50;5.30;;;;;;;-128.00;-1.00;-1.00;19104;314;7505303;-32
2023/10/03 01:36:48;;;;;;;8.30;5.20;;;;;;;-128.00;-1.00;-1.00;19100;314;7506428;-32
2023/10/03 01:39:14;;;;;;;14.50;5.20;;;;;;;-128.00;-1.00;-1.00;19099;315;7504565;-32
2023/10/03 01:41:42;;;;;;;9.50;5.00;;;;;;;-128.00;-1.00;-1.00;19099;314;7504695;-35
2023/10/03 01:44:08;;;;;;;10.30;5.70;;;;;;;-128.00;-1.00;-1.00;19099;320;7504448;-36
2023/10/03 01:46:34;;;;;;;8.30;5.30;;;;;;;-128.00;-1.00;-1.00;19094;314;7506681;-32
2023/10/03 01:49:00;;;;;;;16.30;5.40;;;;;;;-128.00;-1.00;-1.00;19086;321;7504868;-31
2023/10/03 01:51:26;;;;;;;9.10;4.50;;;;;;;-128.00;-1.00;-1.00;19089;314;7505044;-31
2023/10/03 01:53:55;;;;;;;12.70;5.80;;;;;;;-128.00;-1.00;-1.00;19086;314;7504786;-35
2023/10/03 01:56:21;;;;;;;12.30;5.20;;;;;;;-128.00;-1.00;-1.00;19095;314;7504808;-35
2023/10/03 01:58:47;;;;;;;9.40;4.40;;;;;;;-128.00;-1.00;-1.00;19085;320;7504901;-31
2023/10/03 02:01:13;;;;;;;13.10;5.60;;;;;;;-128.00;-1.00;-1.00;19067;316;7504749;-31
2023/10/03 02:03:39;;;;;;;12.70;4.50;;;;;;;-128.00;-1.00;-1.00;19089;314;7504865;-35
2023/10/03 02:06:07;;;;;;;7.20;4.30;;;;;;;-128.00;-1.00;-1.00;19093;320;7504959;-34
2023/10/03 02:08:33;;;;;;;10.80;3.90;;;;;;;-128.00;-1.00;-1.00;19095;318;7505890;-31
2023/10/03 02:10:59;;;;;;;5.00;2.90;;;;;;;-128.00;-1.00;-1.00;19087;314;7506051;-34
2023/10/03 02:13:25;;;;;;;12.20;5.80;;;;;;;-128.00;-1.00;-1.00;19519;315;7504322;-31
2023/10/03 02:15:54;;;;;;;7.40;4.30;;;;;;;-128.00;-1.00;-1.00;19479;320;7504843;-34
2023/10/03 02:18:20;;;;;;;12.80;5.00;;;;;;;-128.00;-1.00;-1.00;19086;314;7506233;-31
2023/10/03 02:20:53;;;;;;;12.40;5.20;;;;;;;-128.00;-1.00;-1.00;19096;315;7506458;-36
2023/10/03 02:23:23;;;;;;;10.50;4.50;;;;;;;-128.00;-1.00;-1.00;19052;321;7505026;-35
2023/10/03 02:25:50;;;;;;;8.00;4.60;;;;;;;-128.00;-1.00;-1.00;19106;315;7505169;-36
2023/10/03 02:28:16;;;;;;;6.80;4.40;;;;;;;-128.00;-1.00;-1.00;19095;315;7505360;-31
2023/10/03 02:30:43;;;;;;;10.70;4.90;;;;;;;-128.00;-1.00;-1.00;19099;316;7504779;-31
2023/10/03 02:33:12;;;;;;;12.00;6.20;;;;;;;-128.00;-1.00;-1.00;19095;320;7505120;-35
2023/10/03 02:35:45;;;;;;;8.00;4.30;;;;;;;-128.00;-1.00;-1.00;19110;315;7504554;-31
2023/10/03 02:38:24;;;;;;;10.60;4.20;;;;;;;-128.00;-1.00;-1.00;19069;321;7504610;-31
2023/10/03 02:41:02;;;;;;;6.00;3.40;;;;;;;-128.00;-1.00;-1.00;19067;315;7505198;-35
2023/10/03 02:43:29;;;;;;;10.10;4.00;;;;;;;-128.00;-1.00;-1.00;19074;317;7504711;-36
2023/10/03 02:45:55;;;;;;;11.90;5.10;;;;;;;-128.00;-1.00;-1.00;19051;316;7504469;-36
2023/10/03 02:48:21;;;;;;;6.10;4.30;;;;;;;-128.00;-1.00;-1.00;19072;316;7506650;-36
2023/10/03 02:50:48;;;;;;;9.20;5.50;;;;;;;-128.00;-1.00;-1.00;19104;315;7504784;-32
2023/10/03 02:53:17;;;;;;;14.40;4.40;;;;;;;-128.00;-1.00;-1.00;19064;315;7505166;-36
2023/10/03 02:55:43;;;;;;;11.80;6.50;;;;;;;-128.00;-1.00;-1.00;19047;320;7506370;-34
2023/10/03 02:58:16;;;;;;;8.60;4.00;;;;;;;-128.00;-1.00;-1.00;19065;320;7504771;-30
2023/10/03 03:00:46;;;;;;;7.80;5.30;;;;;;;-128.00;-1.00;-1.00;19042;318;7506403;-34
2023/10/03 03:03:12;;;;;;;8.70;4.30;;;;;;;-128.00;-1.00;-1.00;19065;316;7504568;-30
2023/10/03 03:05:38;;;;;;;8.80;4.40;;;;;;;-128.00;-1.00;-1.00;19056;320;7504231;-31
2023/10/03 03:08:21;;;;;;;11.00;4.30;;;;;;;-128.00;-1.00;-1.00;19095;315;7507305;-30
2023/10/03 03:10:55;;;;;;;10.60;4.00;;;;;;;-128.00;-1.00;-1.00;19129;315;7505472;-35
2023/10/03 03:13:23;;;;;;;8.50;4.60;;;;;;;-128.00;-1.00;-1.00;19062;319;7506812;-35
2023/10/03 03:15:53;;;;;;;5.50;4.10;;;;;;;-128.00;-1.00;-1.00;19057;315;7504628;-35
2023/10/03 03:18:20;;;;;;;5.00;4.30;;;;;;;-128.00;-1.00;-1.00;19066;316;7505087;-31
2023/10/03 03:20:53;;;;;;;7.70;4.60;;;;;;;-128.00;-1.00;-1.00;19095;315;7505161;-34
2023/10/03 03:23:19;;;;;;;10.00;5.70;;;;;;;-128.00;-1.00;-1.00;19108;319;7504814;-31
2023/10/03 03:25:49;;;;;;;9.90;5.50;;;;;;;-128.00;-1.00;-1.00;19093;315;7504866;-30
2023/10/03 03:28:15;;;;;;;13.60;5.70;;;;;;;-128.00;-1.00;-1.00;19080;315;7505000;-35
2023/10/03 03:30:56;;;;;;;10.80;4.70;;;;;;;-128.00;-1.00;-1.00;19083;320;7505067;-31
2023/10/03 03:33:26;;;;;;;8.90;5.40;;;;;;;-128.00;-1.00;-1.00;19085;320;7505465;-31
2023/10/03 03:35:52;;;;;;;9.60;5.20;;;;;;;-128.00;-1.00;-1.00;19067;319;7504539;-35
2023/10/03 03:38:18;;;;;;;13.40;5.60;;;;;;;-128.00;-1.00;-1.00;19481;316;7504717;-35
2023/10/03 03:40:56;;;;;;;12.30;5.60;;;;;;;-128.00;-1.00;-1.00;19484;316;7506882;-34
2023/10/03 03:43:22;;;;;;;7.40;5.10;;;;;;;-128.00;-1.00;-1.00;19059;315;7504953;-35
2023/10/03 03:45:48;;;;;;;4.60;4.00;;;;;;;-128.00;-1.00;-1.00;19120;320;7505042;-36
2023/10/03 03:48:14;;;;;;;29.20;5.20;;;;;;;-128.00;-1.00;-1.00;19083;320;7505599;-31
2023/10/03 03:50:41;;;;;;;11.30;4.80;;;;;;;-128.00;-1.00;-1.00;19093;315;7505389;-34
2023/10/03 03:53:07;;;;;;;16.10;4.50;;;;;;;-128.00;-1.00;-1.00;19115;315;7504904;-30
2023/10/03 03:55:34;;;;;;;20.70;5.90;;;;;;;-128.00;-1.00;-1.00;19072;316;7505214;-35
2023/10/03 03:58:01;;;;;;;11.40;5.10;;;;;;;-128.00;-1.00;-1.00;19055;316;7505073;-31
2023/10/03 04:00:32;;;;;;;13.80;5.60;;;;;;;-128.00;-1.00;-1.00;19116;314;7504739;-32
2023/10/03 04:03:00;;;;;;;16.50;4.60;;;;;;;-128.00;-1.00;-1.00;19096;315;7504625;-32
2023/10/03 04:05:27;;;;;;;15.10;6.30;;;;;;;-128.00;-1.00;-1.00;19055;316;7505083;-36
2023/10/03 04:07:54;;;;;;;9.80;4.10;;;;;;;-128.00;-1.00;-1.00;19072;320;7505474;-35
2023/10/03 04:10:21;;;;;;;10.80;5.00;;;;;;;-128.00;-1.00;-1.00;19068;317;7505820;-31
2023/10/03 04:12:49;;;;;;;14.80;4.10;;;;;;;-128.00;-1.00;-1.00;19080;319;7504783;-31
2023/10/03 04:15:15;;;;;;;6.60;5.30;;;;;;;-128.00;-1.00;-1.00;19093;315;7506457;-31
2023/10/03 04:17:42;;;;;;;13.70;5.10;;;;;;;-128.00;-1.00;-1.00;19098;320;7505118;-34
2023/10/03 04:22:48;;;;;;;17.10;5.60;;;;;;;-128.00;-1.00;-1.00;19072;319;7505236;-35
2023/10/03 04:25:14;;;;;;;6.10;5.10;;;;;;;-128.00;-1.00;-1.00;19083;317;7505236;-35
2023/10/03 04:27:40;;;;;;;14.80;5.80;;;;;;;-128.00;-1.00;-1.00;19092;315;7506831;-35
2023/10/03 04:30:09;;;;;;;14.50;5.50;;;;;;;-128.00;-1.00;-1.00;19062;316;7505179;-34
2023/10/03 04:32:35;;;;;;;14.50;6.30;;;;;;;-128.00;-1.00;-1.00;19079;315;7504932;-31
2023/10/03 04:35:03;;;;;;;11.90;6.30;;;;;;;-128.00;-1.00;-1.00;19054;320;7504630;-33
2023/10/03 04:37:28;;;;;;;14.80;5.60;;;;;;;-128.00;-1.00;-1.00;19095;319;7506045;-36
2023/10/03 04:39:54;;;;;;;9.40;5.00;;;;;;;-128.00;-1.00;-1.00;19093;320;7505508;-32
2023/10/03 04:42:22;;;;;;;9.90;5.40;;;;;;;-128.00;-1.00;-1.00;19126;320;7506064;-32
2023/10/03 04:44:48;;;;;;;6.50;4.80;;;;;;;-128.00;-1.00;-1.00;19049;316;7504885;-31
2023/10/03 04:47:14;;;;;;;9.90;5.30;;;;;;;-128.00;-1.00;-1.00;19514;315;7505059;-36
2023/10/03 04:49:40;;;;;;;9.30;5.60;;;;;;;-128.00;-1.00;-1.00;19523;320;7505165;-36
2023/10/03 04:52:07;;;;;;;8.00;5.00;;;;;;;-128.00;-1.00;-1.00;19526;320;7504743;-36
2023/10/03 04:54:33;;;;;;;10.60;5.00;;;;;;;-128.00;-1.00;-1.00;19067;320;7505801;-31
2023/10/03 04:56:59;;;;;;;14.90;6.40;;;;;;;-128.00;-1.00;-1.00;19086;315;7504712;-36
2023/10/03 04:59:25;;;;;;;12.70;6.00;;;;;;;-128.00;-1.00;-1.00;19512;320;7505087;-30
2023/10/03 05:01:51;;;;;;;10.90;5.30;;;;;;;-128.00;-1.00;-1.00;19509;315;7505381;-33
2023/10/03 05:04:18;;;;;;;15.70;6.30;;;;;;;-128.00;-1.00;-1.00;19532;315;7505635;-33
2023/10/03 05:06:47;;;;;;;8.50;6.00;;;;;;;-128.00;-1.00;-1.00;19538;319;7504795;-34
2023/10/03 05:09:13;;;;;;;8.90;5.70;;;;;;;-128.00;-1.00;-1.00;19095;317;7506722;-31
2023/10/03 05:11:39;;;;;;;6.90;4.70;;;;;;;-128.00;-1.00;-1.00;19092;320;7505192;-35
2023/10/03 05:14:04;;;;;;;29.70;5.60;;;;;;;-128.00;-1.00;-1.00;19091;320;7506284;-37
2023/10/03 05:16:30;;;;;;;12.80;6.20;;;;;;;-128.00;-1.00;-1.00;19105;315;7506831;-37
2023/10/03 05:18:56;;;;;;;9.80;6.20;;;;;;;-128.00;-1.00;-1.00;19498;316;7505876;-33
2023/10/03 05:21:22;;;;;;;11.30;5.60;;;;;;;-128.00;-1.00;-1.00;19531;315;7506063;-30
2023/10/03 05:23:48;;;;;;;12.20;5.50;;;;;;;-128.00;-1.00;-1.00;19519;314;7505077;-36
2023/10/03 05:26:21;;;;;;;23.10;6.60;;;;;;;-128.00;-1.00;-1.00;19491;316;7505981;-31
2023/10/03 05:28:47;;;;;;;;;;;;;;;-128.00;-1.00;-1.00;19111;315;7504595;-31
2023/10/03 05:31:15;;;;;;;12.30;6.10;;;;;;;-128.00;-1.00;-1.00;19104;320;7505745;-35
2023/10/03 05:33:42;;;;;;;14.70;5.50;;;;;;;-128.00;-1.00;-1.00;19071;315;7507732;-35
2023/10/03 05:36:16;;;;;;;11.10;4.30;;;;;;;-128.00;-1.00;-1.00;19097;315;7507474;-30
2023/10/03 05:38:42;;;;;;;12.70;6.10;;;;;;;-128.00;-1.00;-1.00;19090;320;7506617;-35
2023/10/03 05:41:18;;;;;;;8.80;4.90;;;;;;;-128.00;-1.00;-1.00;19092;314;7505609;-35
2023/10/03 05:43:44;;;;;;;19.30;5.20;;;;;;;-128.00;-1.00;-1.00;19092;315;7505251;-35
2023/10/03 05:46:11;;;;;;;13.00;6.40;;;;;;;-128.00;-1.00;-1.00;19499;314;7504830;-31
2023/10/03 05:48:36;;;;;;;15.80;5.90;;;;;;;-128.00;-1.00;-1.00;19080;315;7504792;-31
2023/10/03 05:51:02;;;;;;;11.30;5.50;;;;;;;-128.00;-1.00;-1.00;19522;315;7505401;-36
2023/10/03 05:53:30;;;;;;;15.10;6.80;;;;;;;-128.00;-1.00;-1.00;19464;320;7505510;-33
2023/10/03 05:55:56;;;;;;;13.60;5.30;;;;;;;-128.00;-1.00;-1.00;19098;315;7506668;-31
2023/10/03 05:58:22;;;;;;;31.90;5.40;;;;;;;-128.00;-1.00;-1.00;19101;315;7504397;-36
2023/10/03 06:00:49;;;;;;;22.40;4.70;;;;;;;-128.00;-1.00;-1.00;19121;315;7505157;-32
2023/10/03 06:03:15;;;;;;;7.60;4.80;;;;;;;-128.00;-1.00;-1.00;19076;315;7506055;-36
2023/10/03 06:05:42;;;;;;;15.60;5.30;;;;;;;-128.00;-1.00;-1.00;19099;315;7506470;-34
2023/10/03 06:08:12;;;;;;;8.80;5.60;;;;;;;-128.00;-1.00;-1.00;19104;319;7505401;-31
2023/10/03 06:10:38;;;;;;;13.60;3.90;;;;;;;-128.00;-1.00;-1.00;19110;315;7504965;-31
2023/10/03 06:13:07;;;;;;;6.50;3.80;;;;;;;-128.00;-1.00;-1.00;19084;315;7504685;-32
2023/10/03 06:15:36;;;;;;;9.50;5.50;;;;;;;-128.00;-1.00;-1.00;19103;315;7504744;-35
2023/10/03 06:18:02;;;;;;;6.60;3.50;;;;;;;-128.00;-1.00;-1.00;19061;320;7504587;-31
2023/10/03 06:20:30;;;;;;;18.40;7.00;;;;;;;-128.00;-1.00;-1.00;19093;320;7505008;-31
2023/10/03 06:22:56;;;;;;;7.20;4.30;;;;;;;-128.00;-1.00;-1.00;19090;320;7504523;-35
2023/10/03 06:25:23;;;;;;;10.80;5.20;;;;;;;-128.00;-1.00;-1.00;19094;315;7505426;-31
2023/10/03 06:27:48;;;;;;;9.90;4.70;;;;;;;-128.00;-1.00;-1.00;19076;320;7504684;-32
2023/10/03 06:30:14;;;;;;;6.90;3.10;;;;;;;-128.00;-1.00;-1.00;19117;320;7504571;-35
2023/10/03 06:32:41;;;;;;;16.20;5.30;;;;;;;-128.00;-1.00;-1.00;19066;316;7506243;-35
2023/10/03 06:35:09;;;;;;;10.70;5.90;;;;;;;-128.00;-1.00;-1.00;19090;315;7504441;-31
2023/10/03 06:37:37;;;;;;;10.40;4.00;;;;;;;-128.00;-1.00;-1.00;19084;320;7504946;-35
2023/10/03 06:40:07;;;;;;;11.40;5.90;;;;;;;-128.00;-1.00;-1.00;19062;320;7504787;-35
2023/10/03 06:42:35;;;;;;;6.50;4.70;;;;;;;-128.00;-1.00;-1.00;19090;315;7504819;-35
2023/10/03 06:45:03;;;;;;;4.80;3.40;;;;;;;-128.00;-1.00;-1.00;19078;318;7504738;-31
2023/10/03 06:47:30;;;;;;;11.30;4.50;;;;;;;-128.00;-1.00;-1.00;19060;315;7504913;-31
2023/10/03 06:49:56;;;;;;;9.80;5.10;;;;;;;-128.00;-1.00;-1.00;19093;315;7504725;-35
2023/10/03 06:52:21;;;;;;;11.10;4.40;;;;;;;-128.00;-1.00;-1.00;19093;320;7504717;-34
2023/10/03 06:54:47;;;;;;;11.00;4.60;;;;;;;-128.00;-1.00;-1.00;19513;315;7505135;-34
2023/10/03 06:57:14;;;;;;;9.70;5.40;;;;;;;-128.00;-1.00;-1.00;19487;315;7505277;-31
2023/10/03 06:59:40;;;;;;;10.50;5.10;;;;;;;-128.00;-1.00;-1.00;19110;315;7504504;-35
2023/10/03 07:02:06;;;;;;;8.60;5.10;;;;;;;-128.00;-1.00;-1.00;19079;314;7506286;-32
2023/10/03 07:04:32;;;;;;;11.60;3.80;;;;;;;-128.00;-1.00;-1.00;19501;316;7505468;-35
2023/10/03 07:06:58;;;;;;;15.00;6.30;;;;;;;-128.00;-1.00;-1.00;19534;319;7507043;-32
2023/10/03 07:09:24;;;;;;;14.10;5.60;;;;;;;-128.00;-1.00;-1.00;19507;315;7505436;-32
2023/10/03 07:11:52;;;;;;;12.10;5.30;;;;;;;-128.00;-1.00;-1.00;19492;317;7504748;-35
2023/10/03 07:14:19;;;;;;;7.40;3.90;;;;;;;-128.00;-1.00;-1.00;19092;320;7505495;-35
2023/10/03 07:16:46;;;;;;;11.00;5.30;;;;;;;-128.00;-1.00;-1.00;19106;315;7505072;-36
2023/10/03 07:19:14;;;;;;;12.10;5.00;;;;;;;-128.00;-1.00;-1.00;19109;315;7505355;-36
2023/10/03 07:21:41;;;;;;;9.40;4.40;;;;;;;-128.00;-1.00;-1.00;19069;319;7504632;-36
2023/10/03 07:24:08;;;;;;;16.20;4.70;;;;;;;-128.00;-1.00;-1.00;19041;318;7505502;-37
2023/10/03 07:26:33;;;;;;;7.90;4.70;;;;;;;-128.00;-1.00;-1.00;19068;315;7506343;-32
2023/10/03 07:29:01;;;;;;;8.00;4.40;;;;;;;-128.00;-1.00;-1.00;19090;315;7506311;-36
2023/10/03 07:31:29;;;;;;;12.90;4.00;;;;;;;-128.00;-1.00;-1.00;19101;315;7504742;-36
2023/10/03 07:33:56;;;;;;;11.10;5.00;;;;;;;-128.00;-1.00;-1.00;19097;315;7504572;-35
2023/10/03 07:36:22;;;;;;;5.30;3.90;;;;;;;-128.00;-1.00;-1.00;19092;320;7506518;-31
2023/10/03 07:38:48;;;;;;;8.40;4.10;;;;;;;-128.00;-1.00;-1.00;19076;320;7504826;-37
2023/10/03 07:41:16;;;;;;;7.20;4.00;;;;;;;-128.00;-1.00;-1.00;19102;315;7504442;-32
2023/10/03 07:43:47;;;;;;;7.90;3.70;;;;;;;-128.00;-1.00;-1.00;19073;316;7505635;-35
2023/10/03 07:46:20;;;;;;;9.90;4.50;;;;;;;-128.00;-1.00;-1.00;19112;320;7507071;-37
2023/10/03 07:48:46;;;;;;;14.40;4.60;;;;;;;-128.00;-1.00;-1.00;19081;315;7504601;-32
2023/10/03 07:51:19;;;;;;;6.30;3.50;;;;;;;-128.00;-1.00;-1.00;19104;319;7505248;-33
2023/10/03 07:53:46;;;;;;;9.70;4.60;;;;;;;-128.00;-1.00;-1.00;19060;320;7505395;-35
2023/10/03 07:56:25;;;;;;;6.60;3.50;;;;;;;-128.00;-1.00;-1.00;19086;314;7504787;-36
2023/10/03 07:58:53;;;;;;;8.10;5.60;;;;;;;-128.00;-1.00;-1.00;19108;314;7506240;-36
2023/10/03 08:01:26;;;;;;;10.80;5.40;;;;;;;-128.00;-1.00;-1.00;19084;319;7506939;-32
2023/10/03 08:03:55;;;;;;;20.90;6.10;;;;;;;-128.00;-1.00;-1.00;19070;315;7504648;-36
2023/10/03 08:06:23;;;;;;;12.60;4.80;;;;;;;-128.00;-1.00;-1.00;19115;315;7506451;-36
2023/10/03 08:08:52;;;;;;;7.40;4.90;;;;;;;-128.00;-1.00;-1.00;19088;319;7504867;-31
2023/10/03 08:11:22;;;;;;;7.40;4.60;;;;;;;-128.00;-1.00;-1.00;19053;317;7504616;-32
2023/10/03 08:13:49;;;;;;;16.90;5.00;;;;;;;-128.00;-1.00;-1.00;19073;320;7504991;-36
2023/10/03 08:16:15;;;;;;;15.50;6.20;;;;;;;-128.00;-1.00;-1.00;19077;316;7504633;-35
2023/10/03 08:18:46;;;;;;;8.00;4.30;;;;;;;-128.00;-1.00;-1.00;19087;320;7505386;-32
2023/10/03 08:21:13;;;;;;;4.10;3.60;;;;;;;-128.00;-1.00;-1.00;19071;315;7504937;-35
2023/10/03 08:23:38;;;;;;;8.90;4.70;;;;;;;-128.00;-1.00;-1.00;19085;315;7504878;-31
2023/10/03 08:26:04;;;;;;;7.30;5.10;;;;;;;-128.00;-1.00;-1.00;19052;321;7505469;-31
2023/10/03 08:28:30;;;;;;;6.80;4.20;;;;;;;-128.00;-1.00;-1.00;19093;315;7507110;-36
2023/10/03 08:30:56;;;;;;;13.80;5.70;;;;;;;-128.00;-1.00;-1.00;19099;320;7506367;-36
2023/10/03 08:33:22;;;;;;;6.10;3.30;;;;;;;-128.00;-1.00;-1.00;19072;316;7504957;-35
2023/10/03 08:35:49;;;;;;;12.50;6.50;;;;;;;-128.00;-1.00;-1.00;19116;320;7505331;-32
2023/10/03 08:38:14;;;;;;;7.80;4.30;;;;;;;-128.00;-1.00;-1.00;19063;316;7504566;-32
2023/10/03 08:40:42;;;;;;;8.40;4.20;;;;;;;-128.00;-1.00;-1.00;19078;316;7505118;-35
2023/10/03 08:43:09;;;;;;;8.30;4.50;;;;;;;-128.00;-1.00;-1.00;19100;320;7504798;-31
2023/10/03 08:45:39;;;;;;;7.00;4.20;;;;;;;-128.00;-1.00;-1.00;19103;319;7504936;-36
2023/10/03 08:48:08;;;;;;;7.70;4.50;;;;;;;-128.00;-1.00;-1.00;19116;315;7505039;-36
2023/10/03 08:50:46;;;;;;;7.80;4.80;;;;;;;-128.00;-1.00;-1.00;19109;315;7505779;-36
2023/10/03 08:56:02;;;;;;;8.00;3.30;;;;;;;-128.00;-1.00;-1.00;19095;315;7504763;-32
2023/10/03 08:58:28;;;;;;;6.20;3.60;;;;;;;-128.00;-1.00;-1.00;19098;320;7504597;-33
2023/10/03 09:00:58;;;;;;;8.00;5.20;;;;;;;-128.00;-1.00;-1.00;19087;320;7506163;-32
2023/10/03 09:06:06;;;;;;;7.10;4.30;;;;;;;-128.00;-1.00;-1.00;19071;320;7504720;-36
2023/10/03 09:08:32;;;;;;;8.20;5.20;;;;;;;-128.00;-1.00;-1.00;19511;315;7505140;-36
2023/10/03 09:11:00;;;;;;;8.70;4.20;;;;;;;-128.00;-1.00;-1.00;19525;315;7504968;-32
2023/10/03 09:13:27;;;;;;;9.50;5.40;;;;;;;-128.00;-1.00;-1.00;19063;320;7504568;-32
2023/10/03 09:16:02;;;;;;;10.60;4.80;;;;;;;-128.00;-1.00;-1.00;19105;320;7506435;-32
2023/10/03 09:18:31;;;;;;;17.20;4.70;;;;;;;-128.00;-1.00;-1.00;19471;321;7504981;-36
2023/10/03 09:20:59;;;;;;;11.30;4.20;;;;;;;-128.00;-1.00;-1.00;19103;315;7504707;-32
2023/10/03 09:23:27;;;;;;;18.70;4.50;;;;;;;-128.00;-1.00;-1.00;18783;316;8188804;-33
2023/10/03 09:25:56;;;;;;;10.40;5.90;;;;;;;-128.00;-1.00;-1.00;19081;320;7505458;-32
2023/10/03 09:28:27;;;;;;;8.70;4.80;;;;;;;-128.00;-1.00;-1.00;19066;317;7504399;-33
2023/10/03 09:30:55;;;;;;;7.60;4.10;;;;;;;-128.00;-1.00;-1.00;19114;315;7505860;-36
2023/10/03 09:33:22;;;;;;;8.90;4.70;;;;;;;-128.00;-1.00;-1.00;19065;315;7504582;-36
2023/10/03 09:36:03;;;;;;;13.30;4.30;;;;;;;-128.00;-1.00;-1.00;19072;320;7506278;-36
2023/10/03 09:38:44;;;;;;;6.20;2.80;;;;;;;-128.00;-1.00;-1.00;19097;315;7505266;-36
2023/10/03 09:43:56;;;;;;;8.80;4.60;;;;;;;-128.00;-1.00;-1.00;19063;314;7506877;-36
2023/10/03 09:46:38;;;;;;;7.00;3.80;;;;;;;-128.00;-1.00;-1.00;50797;315;7504722;-39
2023/10/03 09:49:08;;;;;;;4.70;3.60;;;;;;;-128.00;-1.00;-1.00;101164;315;1002896;-37
2023/10/03 09:51:45;;;;;;;10.80;6.00;;;;;;;-128.00;-1.00;-1.00;100327;315;1203042;-37
2023/10/03 09:54:15;;;;;;;7.90;5.30;;;;;;;-128.00;-1.00;-1.00;87831;314;7354286;-33
2023/10/03 09:56:44;;;;;;;9.30;4.90;;;;;;;-128.00;-1.00;-1.00;101236;315;1004073;-35
2023/10/03 09:59:17;;;;;;;13.60;4.60;;;;;;;-128.00;-1.00;-1.00;52860;315;7504901;-36
2023/10/03 10:01:45;;;;;;;7.80;4.30;;;;;;;-128.00;-1.00;-1.00;19117;315;7505107;-37
2023/10/03 10:04:13;;;;;;;8.40;5.90;;;;;;;-128.00;-1.00;-1.00;19093;320;7505082;-36
2023/10/03 10:06:47;;;;;;;19.40;5.10;;;;;;;-128.00;-1.00;-1.00;19103;319;7504709;-36
2023/10/03 10:09:27;;;;;;;13.00;4.60;;;;;;;-128.00;-1.00;-1.00;19091;315;7504819;-32
2023/10/03 10:12:14;;;;;;;8.40;3.90;;;;;;;-128.00;-1.00;-1.00;19093;314;7506294;-37
2023/10/03 10:17:45;;;;;;;13.90;5.30;;;;;;;-128.00;-1.00;-1.00;19101;320;7505430;-33
2023/10/03 10:23:13;;;;;;;4.20;1.60;;;;;;;-128.00;-1.00;-1.00;19085;319;7505159;-32
2023/10/03 10:25:43;;;;;;;10.20;5.40;;;;;;;-128.00;-1.00;-1.00;19105;315;7505503;-36
2023/10/03 10:28:20;;;;;;;9.00;4.40;;;;;;;-128.00;-1.00;-1.00;19086;315;7504722;-36
2023/10/03 10:31:10;;;;;;;12.10;5.00;;;;;;;-128.00;-1.00;-1.00;19112;314;7504532;-36
2023/10/03 10:33:37;;;;;;;12.20;5.10;;;;;;;-128.00;-1.00;-1.00;20234;320;7504571;-37
2023/10/03 10:36:03;;;;;;;9.90;5.40;;;;;;;-128.00;-1.00;-1.00;19082;319;7504759;-36
2023/10/03 10:38:49;;;;;;;;;;;;;;;-128.00;-1.00;-1.00;57529;314;7506764;-32
2023/10/03 10:44:13;;;;;;;2.30;1.60;;;;;;;-128.00;-1.00;-1.00;99014;315;4003442;-33
2023/10/03 10:46:45;;;;;;;13.00;5.80;;;;;;;-128.00;-1.00;-1.00;20966;315;7504491;-32
2023/10/03 10:49:34;;;;;;;27.00;6.70;;;;;;;-128.00;-1.00;-1.00;19095;315;7504491;-36
2023/10/03 10:52:06;;;;;;;13.50;7.00;;;;;;;-128.00;-1.00;-1.00;19089;315;7504920;-36
2023/10/03 10:54:41;;;;;;;11.70;5.80;;;;;;;-128.00;-1.00;-1.00;19097;319;7504900;-36
2023/10/03 10:57:09;;;;;;;13.60;5.60;;;;;;;-128.00;-1.00;-1.00;19090;314;7505120;-38
2023/10/03 10:59:35;;;;;;;58.30;7.00;;;;;;;-128.00;-1.00;-1.00;19075;316;7506858;-36
2023/10/03 11:02:03;;;;;;;9.90;5.30;;;;;;;-128.00;-1.00;-1.00;19064;320;7505437;-36
2023/10/03 11:04:33;;;;;;;9.10;5.10;;;;;;;-128.00;-1.00;-1.00;19080;315;7505196;-36
2023/10/03 11:06:58;;;;;;;21.90;6.70;;;;;;;-128.00;-1.00;-1.00;19090;315;7505155;-32
2023/10/03 11:09:25;;;;;;;36.80;6.20;;;;;;;-128.00;-1.00;-1.00;19083;316;7504962;-36
2023/10/03 11:11:51;;;;;;;12.30;4.70;;;;;;;-128.00;-1.00;-1.00;19090;315;7507648;-33
2023/10/03 11:14:29;;;;;;;17.00;5.40;;;;;;;-128.00;-1.00;-1.00;19084;315;7505388;-36
2023/10/03 11:16:56;;;;;;;21.60;5.20;;;;;;;-128.00;-1.00;-1.00;19127;318;7504917;-37
2023/10/03 11:19:22;;;;;;;16.40;5.00;;;;;;;-128.00;-1.00;-1.00;19102;314;7505331;-33
2023/10/03 11:21:48;;;;;;;6.90;4.30;;;;;;;-128.00;-1.00;-1.00;19099;315;7505039;-36
2023/10/03 11:24:17;;;;;;;9.80;4.70;;;;;;;-128.00;-1.00;-1.00;19497;317;7505287;-32
2023/10/03 11:26:44;;;;;;;8.70;5.60;;;;;;;-128.00;-1.00;-1.00;19086;320;7505110;-36
2023/10/03 11:29:09;;;;;;;10.00;4.90;;;;;;;-128.00;-1.00;-1.00;19095;315;7505152;-36
2023/10/03 11:31:39;;;;;;;21.20;6.80;;;;;;;-128.00;-1.00;-1.00;19103;314;7505907;-32
2023/10/03 11:34:05;;;;;;;11.70;5.10;;;;;;;-128.00;-1.00;-1.00;19101;315;7504583;-32
2023/10/03 11:36:44;;;;;;;9.70;5.70;;;;;;;-128.00;-1.00;-1.00;45859;315;7504337;-36
2023/10/03 11:39:13;;;;;;;8.30;5.10;;;;;;;-128.00;-1.00;-1.00;19072;316;7504842;-36
2023/10/03 11:41:39;;;;;;;9.00;5.30;;;;;;;-128.00;-1.00;-1.00;19103;315;7505238;-36
2023/10/03 11:44:17;;;;;;;8.80;4.20;;;;;;;-128.00;-1.00;-1.00;19105;315;7504728;-32
2023/10/03 11:46:44;;;;;;;14.80;5.60;;;;;;;-128.00;-1.00;-1.00;19104;315;7504721;-37
2023/10/03 11:49:10;;;;;;;12.00;5.30;;;;;;;-128.00;-1.00;-1.00;19081;315;7505722;-33
2023/10/03 11:51:38;;;;;;;15.10;6.80;;;;;;;-128.00;-1.00;-1.00;19079;315;7506265;-34
2023/10/03 11:54:08;;;;;;;9.50;4.50;;;;;;;-128.00;-1.00;-1.00;19093;320;7504880;-37
2023/10/03 11:56:45;;;;;;;7.20;4.60;;;;;;;-128.00;-1.00;-1.00;19050;316;7504878;-33
2023/10/03 11:59:15;;;;;;;13.90;4.60;;;;;;;-128.00;-1.00;-1.00;19046;321;7505229;-37
2023/10/03 12:01:42;;;;;;;8.50;4.70;;;;;;;-128.00;-1.00;-1.00;19090;318;7504494;-37
2023/10/03 12:04:09;;;;;;;10.80;6.50;;;;;;;-128.00;-1.00;-1.00;19078;314;7506937;-37
2023/10/03 12:06:37;;;;;;;6.90;4.30;;;;;;;-128.00;-1.00;-1.00;19096;320;7504446;-31
2023/10/03 12:09:03;;;;;;;13.70;5.20;;;;;;;-128.00;-1.00;-1.00;19078;315;7505177;-36
2023/10/03 12:11:29;;;;;;;22.70;6.50;;;;;;;-128.00;-1.00;-1.00;19100;318;7504832;-36
2023/10/03 12:13:55;;;;;;;12.80;5.90;;;;;;;-128.00;-1.00;-1.00;19522;319;7504560;-32
2023/10/03 12:16:22;;;;;;;10.90;5.70;;;;;;;-128.00;-1.00;-1.00;19522;315;7506688;-32
2023/10/03 12:18:48;;;;;;;8.40;5.30;;;;;;;-128.00;-1.00;-1.00;19058;321;7504730;-36
2023/10/03 12:21:14;;;;;;;18.30;5.50;;;;;;;-128.00;-1.00;-1.00;19111;315;7505266;-32
2023/10/03 12:23:39;;;;;;;7.80;4.60;;;;;;;-128.00;-1.00;-1.00;19092;315;7504683;-32
2023/10/03 12:26:05;;;;;;;16.00;3.60;;;;;;;-128.00;-1.00;-1.00;19095;319;7507073;-33
2023/10/03 12:28:31;;;;;;;10.20;5.50;;;;;;;-128.00;-1.00;-1.00;19088;315;7504392;-36
2023/10/03 12:30:57;;;;;;;32.60;6.10;;;;;;;-128.00;-1.00;-1.00;19099;315;7506262;-32
2023/10/03 12:33:22;;;;;;;13.70;6.70;;;;;;;-128.00;-1.00;-1.00;19100;315;7505011;-36